sensor_id;sensor_type;location;lat;lon;timestamp;P1;durP1;ratioP1;P2;durP2;ratioP2
23956;SDS011;12165;45.458;11.062;2022-08-01T00:00:06;3.63;;;1.80;;
23956;SDS011;12165;45.458;11.062;2022-08-01T00:02:35;3.25;;;1.80;;
23956;SDS011;12165;45.458;11.062;2022-08-01T00:05:07;2.55;;;1.70;;
23956;SDS011;12165;45.458;11.062;2022-08-01T00:07:35;6.18;;;2.03;;
23956;SDS011;12165;45.458;11.062;2022-08-01T00:10:03;2.05;;;1.65;;
23956;SDS011;12165;45.458;11.062;2022-08-01T00:12:31;2.65;;;1.85;;
23956;SDS011;12165;45.458;11.062;2022-08-01T00:14:58;3.10;;;2.00;;
23956;SDS011;12165;45.458;11.062;2022-08-01T00:17:25;2.50;;;1.60;;
23956;SDS011;12165;45.458;11.062;2022-08-01T00:19:52;2.88;;;1.92;;
23956;SDS011;12165;45.458;11.062;2022-08-01T00:22:19;3.85;;;2.00;;
23956;SDS011;12165;45.458;11.062;2022-08-01T00:24:46;5.22;;;1.88;;
23956;SDS011;12165;45.458;11.062;2022-08-01T00:27:13;3.83;;;1.90;;
23956;SDS011;12165;45.458;11.062;2022-08-01T00:29:40;3.25;;;1.90;;
23956;SDS011;12165;45.458;11.062;2022-08-01T00:32:29;3.65;;;1.88;;
23956;SDS011;12165;45.458;11.062;2022-08-01T00:34:57;3.58;;;2.30;;
23956;SDS011;12165;45.458;11.062;2022-08-01T00:37:24;2.88;;;1.83;;
23956;SDS011;12165;45.458;11.062;2022-08-01T00:39:51;2.08;;;1.77;;
23956;SDS011;12165;45.458;11.062;2022-08-01T00:42:18;2.72;;;1.75;;
23956;SDS011;12165;45.458;11.062;2022-08-01T00:44:45;5.65;;;2.05;;
23956;SDS011;12165;45.458;11.062;2022-08-01T00:47:12;2.47;;;1.88;;
23956;SDS011;12165;45.458;11.062;2022-08-01T00:49:39;4.88;;;1.80;;
23956;SDS011;12165;45.458;11.062;2022-08-01T00:52:06;5.15;;;2.20;;
23956;SDS011;12165;45.458;11.062;2022-08-01T00:54:35;7.00;;;2.20;;
23956;SDS011;12165;45.458;11.062;2022-08-01T00:57:03;3.63;;;1.95;;
23956;SDS011;12165;45.458;11.062;2022-08-01T00:59:35;2.75;;;1.92;;
23956;SDS011;12165;45.458;11.062;2022-08-01T01:02:05;4.28;;;1.90;;
23956;SDS011;12165;45.458;11.062;2022-08-01T01:04:41;2.50;;;1.85;;
23956;SDS011;12165;45.458;11.062;2022-08-01T01:07:10;2.78;;;1.42;;
23956;SDS011;12165;45.458;11.062;2022-08-01T01:10:01;3.13;;;1.83;;
23956;SDS011;12165;45.458;11.062;2022-08-01T01:18:03;5.28;;;1.98;;
23956;SDS011;12165;45.458;11.062;2022-08-01T01:20:38;4.18;;;2.30;;
23956;SDS011;12165;45.458;11.062;2022-08-01T01:26:31;4.07;;;2.17;;
23956;SDS011;12165;45.458;11.062;2022-08-01T01:29:31;2.80;;;1.73;;
23956;SDS011;12165;45.458;11.062;2022-08-01T01:35:06;2.78;;;1.77;;
23956;SDS011;12165;45.458;11.062;2022-08-01T01:37:37;5.97;;;1.90;;
23956;SDS011;12165;45.458;11.062;2022-08-01T01:40:06;3.92;;;2.13;;
23956;SDS011;12165;45.458;11.062;2022-08-01T01:42:35;4.10;;;1.90;;
23956;SDS011;12165;45.458;11.062;2022-08-01T01:45:04;2.25;;;1.70;;
23956;SDS011;12165;45.458;11.062;2022-08-01T01:47:33;3.35;;;2.00;;
23956;SDS011;12165;45.458;11.062;2022-08-01T01:50:02;3.20;;;1.90;;
23956;SDS011;12165;45.458;11.062;2022-08-01T01:52:31;3.08;;;2.03;;
23956;SDS011;12165;45.458;11.062;2022-08-01T01:54:58;4.90;;;2.00;;
23956;SDS011;12165;45.458;11.062;2022-08-01T01:57:27;4.07;;;2.10;;
23956;SDS011;12165;45.458;11.062;2022-08-01T01:59:57;3.60;;;1.80;;
23956;SDS011;12165;45.458;11.062;2022-08-01T02:02:25;2.50;;;1.80;;
23956;SDS011;12165;45.458;11.062;2022-08-01T02:04:54;3.50;;;1.80;;
23956;SDS011;12165;45.458;11.062;2022-08-01T02:07:23;4.00;;;1.73;;
23956;SDS011;12165;45.458;11.062;2022-08-01T02:09:51;3.85;;;1.63;;
23956;SDS011;12165;45.458;11.062;2022-08-01T02:12:19;5.82;;;1.92;;
23956;SDS011;12165;45.458;11.062;2022-08-01T02:14:50;3.40;;;1.90;;
23956;SDS011;12165;45.458;11.062;2022-08-01T02:17:20;2.33;;;1.60;;
23956;SDS011;12165;45.458;11.062;2022-08-01T02:19:50;4.65;;;1.90;;
23956;SDS011;12165;45.458;11.062;2022-08-01T02:27:41;2.70;;;1.80;;
23956;SDS011;12165;45.458;11.062;2022-08-01T02:30:17;3.65;;;2.00;;
23956;SDS011;12165;45.458;11.062;2022-08-01T02:32:51;2.70;;;1.70;;
23956;SDS011;12165;45.458;11.062;2022-08-01T02:35:28;5.18;;;2.28;;
23956;SDS011;12165;45.458;11.062;2022-08-01T02:37:58;3.15;;;1.75;;
23956;SDS011;12165;45.458;11.062;2022-08-01T02:40:28;3.63;;;1.70;;
23956;SDS011;12165;45.458;11.062;2022-08-01T02:42:59;5.82;;;2.10;;
23956;SDS011;12165;45.458;11.062;2022-08-01T02:45:28;3.00;;;2.15;;
23956;SDS011;12165;45.458;11.062;2022-08-01T02:48:01;2.70;;;1.67;;
23956;SDS011;12165;45.458;11.062;2022-08-01T02:50:35;3.17;;;2.10;;
23956;SDS011;12165;45.458;11.062;2022-08-01T02:53:03;5.97;;;2.10;;
23956;SDS011;12165;45.458;11.062;2022-08-01T02:55:34;2.08;;;1.60;;
23956;SDS011;12165;45.458;11.062;2022-08-01T02:58:03;3.25;;;1.90;;
23956;SDS011;12165;45.458;11.062;2022-08-01T03:00:31;5.68;;;1.90;;
23956;SDS011;12165;45.458;11.062;2022-08-01T03:03:03;6.60;;;1.90;;
23956;SDS011;12165;45.458;11.062;2022-08-01T03:05:32;5.15;;;2.20;;
23956;SDS011;12165;45.458;11.062;2022-08-01T03:08:01;2.95;;;1.85;;
23956;SDS011;12165;45.458;11.062;2022-08-01T03:10:38;2.00;;;1.60;;
23956;SDS011;12165;45.458;11.062;2022-08-01T03:13:07;3.72;;;1.90;;
23956;SDS011;12165;45.458;11.062;2022-08-01T03:15:37;4.68;;;1.60;;
23956;SDS011;12165;45.458;11.062;2022-08-01T03:18:07;4.70;;;2.10;;
23956;SDS011;12165;45.458;11.062;2022-08-01T03:20:35;2.13;;;1.63;;
23956;SDS011;12165;45.458;11.062;2022-08-01T03:23:06;2.63;;;1.83;;
23956;SDS011;12165;45.458;11.062;2022-08-01T03:25:36;2.70;;;1.50;;
23956;SDS011;12165;45.458;11.062;2022-08-01T03:28:06;5.15;;;1.77;;
23956;SDS011;12165;45.458;11.062;2022-08-01T03:30:35;3.15;;;1.70;;
23956;SDS011;12165;45.458;11.062;2022-08-01T03:33:04;7.00;;;2.28;;
23956;SDS011;12165;45.458;11.062;2022-08-01T03:35:36;3.67;;;1.77;;
23956;SDS011;12165;45.458;11.062;2022-08-01T03:38:08;2.90;;;1.70;;
23956;SDS011;12165;45.458;11.062;2022-08-01T03:40:45;4.70;;;2.10;;
23956;SDS011;12165;45.458;11.062;2022-08-01T03:43:17;4.68;;;1.80;;
23956;SDS011;12165;45.458;11.062;2022-08-01T03:46:07;3.20;;;1.70;;
23956;SDS011;12165;45.458;11.062;2022-08-01T03:48:39;4.00;;;1.85;;
23956;SDS011;12165;45.458;11.062;2022-08-01T03:51:09;4.15;;;2.20;;
23956;SDS011;12165;45.458;11.062;2022-08-01T03:53:38;2.83;;;1.83;;
23956;SDS011;12165;45.458;11.062;2022-08-01T03:56:08;5.25;;;1.90;;
23956;SDS011;12165;45.458;11.062;2022-08-01T03:58:38;6.70;;;1.58;;
23956;SDS011;12165;45.458;11.062;2022-08-01T04:01:06;2.28;;;1.55;;
23956;SDS011;12165;45.458;11.062;2022-08-01T04:03:41;4.22;;;1.85;;
23956;SDS011;12165;45.458;11.062;2022-08-01T04:06:09;3.50;;;1.75;;
23956;SDS011;12165;45.458;11.062;2022-08-01T04:08:37;7.95;;;2.50;;
23956;SDS011;12165;45.458;11.062;2022-08-01T04:11:05;4.30;;;1.80;;
23956;SDS011;12165;45.458;11.062;2022-08-01T04:13:34;2.55;;;1.80;;
23956;SDS011;12165;45.458;11.062;2022-08-01T04:16:03;4.07;;;1.92;;
23956;SDS011;12165;45.458;11.062;2022-08-01T04:18:31;9.80;;;3.00;;
23956;SDS011;12165;45.458;11.062;2022-08-01T04:20:58;5.72;;;2.13;;
23956;SDS011;12165;45.458;11.062;2022-08-01T04:23:25;4.93;;;1.85;;
23956;SDS011;12165;45.458;11.062;2022-08-01T04:25:54;6.28;;;1.73;;
23956;SDS011;12165;45.458;11.062;2022-08-01T04:28:23;5.15;;;1.88;;
23956;SDS011;12165;45.458;11.062;2022-08-01T04:30:52;4.85;;;1.58;;
23956;SDS011;12165;45.458;11.062;2022-08-01T04:33:27;4.35;;;1.98;;
23956;SDS011;12165;45.458;11.062;2022-08-01T04:35:56;3.97;;;2.10;;
23956;SDS011;12165;45.458;11.062;2022-08-01T04:38:30;9.10;;;1.98;;
23956;SDS011;12165;45.458;11.062;2022-08-01T04:41:04;7.75;;;2.15;;
23956;SDS011;12165;45.458;11.062;2022-08-01T04:43:35;3.25;;;1.73;;
23956;SDS011;12165;45.458;11.062;2022-08-01T04:46:09;5.68;;;1.92;;
23956;SDS011;12165;45.458;11.062;2022-08-01T04:48:38;6.22;;;1.95;;
23956;SDS011;12165;45.458;11.062;2022-08-01T04:51:15;6.97;;;2.10;;
23956;SDS011;12165;45.458;11.062;2022-08-01T04:53:43;3.30;;;1.73;;
23956;SDS011;12165;45.458;11.062;2022-08-01T04:56:12;5.45;;;1.63;;
23956;SDS011;12165;45.458;11.062;2022-08-01T04:58:43;4.30;;;1.80;;
23956;SDS011;12165;45.458;11.062;2022-08-01T05:01:10;4.43;;;1.80;;
23956;SDS011;12165;45.458;11.062;2022-08-01T05:03:38;5.38;;;1.92;;
23956;SDS011;12165;45.458;11.062;2022-08-01T05:06:05;7.07;;;2.13;;
23956;SDS011;12165;45.458;11.062;2022-08-01T05:08:32;6.25;;;2.10;;
23956;SDS011;12165;45.458;11.062;2022-08-01T05:10:59;3.97;;;1.75;;
23956;SDS011;12165;45.458;11.062;2022-08-01T05:13:27;6.22;;;2.00;;
23956;SDS011;12165;45.458;11.062;2022-08-01T05:15:54;8.27;;;2.05;;
23956;SDS011;12165;45.458;11.062;2022-08-01T05:18:21;5.35;;;1.95;;
23956;SDS011;12165;45.458;11.062;2022-08-01T05:20:53;6.00;;;1.80;;
23956;SDS011;12165;45.458;11.062;2022-08-01T05:23:21;3.90;;;1.70;;
23956;SDS011;12165;45.458;11.062;2022-08-01T05:26:08;4.78;;;1.88;;
23956;SDS011;12165;45.458;11.062;2022-08-01T05:28:35;7.32;;;2.67;;
23956;SDS011;12165;45.458;11.062;2022-08-01T05:31:02;5.53;;;2.10;;
23956;SDS011;12165;45.458;11.062;2022-08-01T05:33:30;7.63;;;1.90;;
23956;SDS011;12165;45.458;11.062;2022-08-01T05:35:57;8.43;;;2.40;;
23956;SDS011;12165;45.458;11.062;2022-08-01T05:38:24;7.63;;;2.15;;
23956;SDS011;12165;45.458;11.062;2022-08-01T05:40:51;6.35;;;2.28;;
23956;SDS011;12165;45.458;11.062;2022-08-01T05:43:18;3.78;;;2.00;;
23956;SDS011;12165;45.458;11.062;2022-08-01T05:45:45;7.40;;;2.65;;
23956;SDS011;12165;45.458;11.062;2022-08-01T05:48:12;9.95;;;2.60;;
23956;SDS011;12165;45.458;11.062;2022-08-01T05:50:39;9.63;;;2.20;;
23956;SDS011;12165;45.458;11.062;2022-08-01T05:53:06;6.95;;;1.90;;
23956;SDS011;12165;45.458;11.062;2022-08-01T05:55:34;8.80;;;2.30;;
23956;SDS011;12165;45.458;11.062;2022-08-01T05:58:01;5.07;;;2.25;;
23956;SDS011;12165;45.458;11.062;2022-08-01T06:00:28;8.52;;;2.53;;
23956;SDS011;12165;45.458;11.062;2022-08-01T06:02:55;13.00;;;2.67;;
23956;SDS011;12165;45.458;11.062;2022-08-01T06:05:22;7.78;;;2.75;;
23956;SDS011;12165;45.458;11.062;2022-08-01T06:07:49;4.90;;;2.20;;
23956;SDS011;12165;45.458;11.062;2022-08-01T06:10:16;9.93;;;2.25;;
23956;SDS011;12165;45.458;11.062;2022-08-01T06:12:43;7.03;;;2.38;;
23956;SDS011;12165;45.458;11.062;2022-08-01T06:15:10;5.95;;;2.00;;
23956;SDS011;12165;45.458;11.062;2022-08-01T06:17:38;7.72;;;2.10;;
23956;SDS011;12165;45.458;11.062;2022-08-01T06:20:06;6.85;;;1.90;;
23956;SDS011;12165;45.458;11.062;2022-08-01T06:22:33;9.30;;;2.10;;
23956;SDS011;12165;45.458;11.062;2022-08-01T06:25:00;6.95;;;2.60;;
23956;SDS011;12165;45.458;11.062;2022-08-01T06:27:27;7.05;;;2.65;;
23956;SDS011;12165;45.458;11.062;2022-08-01T06:29:54;7.68;;;2.75;;
23956;SDS011;12165;45.458;11.062;2022-08-01T06:32:22;10.95;;;3.42;;
23956;SDS011;12165;45.458;11.062;2022-08-01T06:34:53;12.95;;;3.67;;
23956;SDS011;12165;45.458;11.062;2022-08-01T06:37:21;8.07;;;3.03;;
23956;SDS011;12165;45.458;11.062;2022-08-01T06:39:49;10.30;;;3.17;;
23956;SDS011;12165;45.458;11.062;2022-08-01T06:42:16;9.02;;;2.95;;
23956;SDS011;12165;45.458;11.062;2022-08-01T06:44:44;7.93;;;3.38;;
23956;SDS011;12165;45.458;11.062;2022-08-01T06:47:11;12.82;;;2.80;;
23956;SDS011;12165;45.458;11.062;2022-08-01T06:49:38;13.00;;;3.63;;
23956;SDS011;12165;45.458;11.062;2022-08-01T06:52:05;11.40;;;3.25;;
23956;SDS011;12165;45.458;11.062;2022-08-01T06:54:33;11.88;;;3.03;;
23956;SDS011;12165;45.458;11.062;2022-08-01T06:57:00;11.45;;;3.10;;
23956;SDS011;12165;45.458;11.062;2022-08-01T06:59:27;12.38;;;3.10;;
23956;SDS011;12165;45.458;11.062;2022-08-01T07:01:54;10.23;;;2.80;;
23956;SDS011;12165;45.458;11.062;2022-08-01T07:04:21;7.60;;;2.60;;
23956;SDS011;12165;45.458;11.062;2022-08-01T07:06:48;7.63;;;2.50;;
23956;SDS011;12165;45.458;11.062;2022-08-01T07:09:15;7.72;;;2.47;;
23956;SDS011;12165;45.458;11.062;2022-08-01T07:11:42;20.58;;;3.53;;
23956;SDS011;12165;45.458;11.062;2022-08-01T07:14:09;9.45;;;2.88;;
23956;SDS011;12165;45.458;11.062;2022-08-01T07:16:36;13.55;;;3.50;;
23956;SDS011;12165;45.458;11.062;2022-08-01T07:19:02;9.07;;;2.80;;
23956;SDS011;12165;45.458;11.062;2022-08-01T07:21:29;14.27;;;2.45;;
23956;SDS011;12165;45.458;11.062;2022-08-01T07:24:07;10.73;;;3.17;;
23956;SDS011;12165;45.458;11.062;2022-08-01T07:26:42;11.13;;;2.97;;
23956;SDS011;12165;45.458;11.062;2022-08-01T07:29:26;8.73;;;3.33;;
23956;SDS011;12165;45.458;11.062;2022-08-01T07:31:54;16.40;;;3.38;;
23956;SDS011;12165;45.458;11.062;2022-08-01T07:34:23;6.88;;;2.92;;
23956;SDS011;12165;45.458;11.062;2022-08-01T07:36:51;13.10;;;3.85;;
23956;SDS011;12165;45.458;11.062;2022-08-01T07:39:19;18.15;;;4.07;;
23956;SDS011;12165;45.458;11.062;2022-08-01T07:41:47;14.70;;;4.15;;
23956;SDS011;12165;45.458;11.062;2022-08-01T07:44:33;13.93;;;3.85;;
23956;SDS011;12165;45.458;11.062;2022-08-01T07:47:01;9.15;;;3.83;;
23956;SDS011;12165;45.458;11.062;2022-08-01T07:49:28;15.45;;;3.95;;
23956;SDS011;12165;45.458;11.062;2022-08-01T07:51:57;18.13;;;4.45;;
23956;SDS011;12165;45.458;11.062;2022-08-01T07:54:29;17.10;;;4.05;;
23956;SDS011;12165;45.458;11.062;2022-08-01T07:56:59;10.25;;;3.88;;
23956;SDS011;12165;45.458;11.062;2022-08-01T07:59:27;13.82;;;4.20;;
23956;SDS011;12165;45.458;11.062;2022-08-01T08:01:54;7.50;;;3.67;;
23956;SDS011;12165;45.458;11.062;2022-08-01T08:04:21;16.25;;;4.03;;
23956;SDS011;12165;45.458;11.062;2022-08-01T08:06:48;13.32;;;3.63;;
23956;SDS011;12165;45.458;11.062;2022-08-01T08:09:15;8.95;;;4.43;;
23956;SDS011;12165;45.458;11.062;2022-08-01T08:11:43;8.98;;;3.45;;
23956;SDS011;12165;45.458;11.062;2022-08-01T08:14:14;7.32;;;3.60;;
23956;SDS011;12165;45.458;11.062;2022-08-01T08:16:42;12.52;;;3.83;;
23956;SDS011;12165;45.458;11.062;2022-08-01T08:19:10;8.73;;;2.78;;
23956;SDS011;12165;45.458;11.062;2022-08-01T08:21:37;10.38;;;3.03;;
23956;SDS011;12165;45.458;11.062;2022-08-01T08:24:05;12.80;;;3.00;;
23956;SDS011;12165;45.458;11.062;2022-08-01T08:26:59;12.80;;;3.00;;
23956;SDS011;12165;45.458;11.062;2022-08-01T08:29:28;10.10;;;3.05;;
23956;SDS011;12165;45.458;11.062;2022-08-01T08:31:57;7.43;;;2.50;;
23956;SDS011;12165;45.458;11.062;2022-08-01T08:34:25;9.32;;;2.60;;
23956;SDS011;12165;45.458;11.062;2022-08-01T08:36:54;13.20;;;2.72;;
23956;SDS011;12165;45.458;11.062;2022-08-01T08:39:24;16.85;;;3.50;;
23956;SDS011;12165;45.458;11.062;2022-08-01T08:41:52;11.48;;;2.88;;
23956;SDS011;12165;45.458;11.062;2022-08-01T08:44:19;9.00;;;3.08;;
23956;SDS011;12165;45.458;11.062;2022-08-01T08:46:50;7.32;;;2.55;;
23956;SDS011;12165;45.458;11.062;2022-08-01T08:49:19;12.23;;;2.53;;
23956;SDS011;12165;45.458;11.062;2022-08-01T08:51:49;10.88;;;2.67;;
23956;SDS011;12165;45.458;11.062;2022-08-01T08:54:19;15.93;;;2.50;;
23956;SDS011;12165;45.458;11.062;2022-08-01T08:56:56;10.55;;;2.63;;
23956;SDS011;12165;45.458;11.062;2022-08-01T08:59:25;11.10;;;2.40;;
23956;SDS011;12165;45.458;11.062;2022-08-01T09:01:52;4.35;;;2.67;;
23956;SDS011;12165;45.458;11.062;2022-08-01T09:04:20;13.27;;;3.10;;
23956;SDS011;12165;45.458;11.062;2022-08-01T09:06:52;5.90;;;2.50;;
23956;SDS011;12165;45.458;11.062;2022-08-01T09:09:19;7.45;;;2.42;;
23956;SDS011;12165;45.458;11.062;2022-08-01T09:11:47;11.52;;;2.35;;
23956;SDS011;12165;45.458;11.062;2022-08-01T09:14:23;4.65;;;2.10;;
23956;SDS011;12165;45.458;11.062;2022-08-01T09:17:04;9.63;;;2.33;;
23956;SDS011;12165;45.458;11.062;2022-08-01T09:19:38;9.02;;;2.30;;
23956;SDS011;12165;45.458;11.062;2022-08-01T09:22:20;11.68;;;2.45;;
23956;SDS011;12165;45.458;11.062;2022-08-01T09:27:32;6.63;;;2.53;;
23956;SDS011;12165;45.458;11.062;2022-08-01T09:30:34;7.20;;;2.63;;
23956;SDS011;12165;45.458;11.062;2022-08-01T09:32:55;7.40;;;2.45;;
23956;SDS011;12165;45.458;11.062;2022-08-01T09:40:57;5.40;;;2.20;;
23956;SDS011;12165;45.458;11.062;2022-08-01T09:43:27;9.40;;;2.20;;
23956;SDS011;12165;45.458;11.062;2022-08-01T09:45:59;8.77;;;2.60;;
23956;SDS011;12165;45.458;11.062;2022-08-01T09:48:31;6.68;;;2.38;;
23956;SDS011;12165;45.458;11.062;2022-08-01T09:50:59;6.55;;;2.35;;
23956;SDS011;12165;45.458;11.062;2022-08-01T09:53:42;7.70;;;2.63;;
23956;SDS011;12165;45.458;11.062;2022-08-01T09:56:17;5.35;;;2.33;;
23956;SDS011;12165;45.458;11.062;2022-08-01T09:58:55;4.47;;;2.10;;
23956;SDS011;12165;45.458;11.062;2022-08-01T10:01:27;6.07;;;2.10;;
23956;SDS011;12165;45.458;11.062;2022-08-01T10:04:14;4.32;;;2.15;;
23956;SDS011;12165;45.458;11.062;2022-08-01T10:06:44;5.38;;;2.30;;
23956;SDS011;12165;45.458;11.062;2022-08-01T10:09:28;3.53;;;2.10;;
23956;SDS011;12165;45.458;11.062;2022-08-01T10:12:05;4.50;;;2.28;;
23956;SDS011;12165;45.458;11.062;2022-08-01T10:14:34;6.18;;;2.28;;
23956;SDS011;12165;45.458;11.062;2022-08-01T10:17:07;6.78;;;2.53;;
23956;SDS011;12165;45.458;11.062;2022-08-01T10:19:45;6.68;;;2.55;;
23956;SDS011;12165;45.458;11.062;2022-08-01T10:22:13;3.85;;;2.00;;
23956;SDS011;12165;45.458;11.062;2022-08-01T10:24:45;5.88;;;2.53;;
23956;SDS011;12165;45.458;11.062;2022-08-01T10:27:14;7.53;;;2.80;;
23956;SDS011;12165;45.458;11.062;2022-08-01T10:29:59;4.45;;;2.35;;
23956;SDS011;12165;45.458;11.062;2022-08-01T10:32:48;4.13;;;2.35;;
23956;SDS011;12165;45.458;11.062;2022-08-01T10:35:20;7.15;;;2.50;;
23956;SDS011;12165;45.458;11.062;2022-08-01T10:38:08;4.40;;;2.22;;
23956;SDS011;12165;45.458;11.062;2022-08-01T10:40:39;5.63;;;2.20;;
23956;SDS011;12165;45.458;11.062;2022-08-01T10:43:12;8.50;;;2.20;;
23956;SDS011;12165;45.458;11.062;2022-08-01T10:45:47;5.10;;;2.30;;
23956;SDS011;12165;45.458;11.062;2022-08-01T10:51:05;6.00;;;2.35;;
23956;SDS011;12165;45.458;11.062;2022-08-01T10:53:48;10.02;;;2.80;;
23956;SDS011;12165;45.458;11.062;2022-08-01T10:56:22;8.60;;;2.58;;
23956;SDS011;12165;45.458;11.062;2022-08-01T10:59:00;4.82;;;2.97;;
23956;SDS011;12165;45.458;11.062;2022-08-01T11:01:32;7.63;;;2.97;;
23956;SDS011;12165;45.458;11.062;2022-08-01T11:28:24;5.63;;;2.80;;
23956;SDS011;12165;45.458;11.062;2022-08-01T11:41:11;6.90;;;2.50;;
23956;SDS011;12165;45.458;11.062;2022-08-01T11:52:15;7.75;;;2.90;;
23956;SDS011;12165;45.458;11.062;2022-08-01T11:57:30;7.50;;;3.25;;
23956;SDS011;12165;45.458;11.062;2022-08-01T12:00:17;6.82;;;2.58;;
23956;SDS011;12165;45.458;11.062;2022-08-01T12:02:48;6.07;;;2.92;;
23956;SDS011;12165;45.458;11.062;2022-08-01T12:05:30;8.60;;;2.72;;
23956;SDS011;12165;45.458;11.062;2022-08-01T12:08:00;3.67;;;2.45;;
23956;SDS011;12165;45.458;11.062;2022-08-01T12:10:32;7.35;;;2.60;;
23956;SDS011;12165;45.458;11.062;2022-08-01T12:13:15;6.07;;;2.40;;
23956;SDS011;12165;45.458;11.062;2022-08-01T12:15:44;6.85;;;2.50;;
23956;SDS011;12165;45.458;11.062;2022-08-01T12:18:12;5.32;;;2.72;;
23956;SDS011;12165;45.458;11.062;2022-08-01T12:20:42;5.15;;;2.35;;
23956;SDS011;12165;45.458;11.062;2022-08-01T12:23:22;4.97;;;2.92;;
23956;SDS011;12165;45.458;11.062;2022-08-01T12:25:52;6.30;;;2.22;;
23956;SDS011;12165;45.458;11.062;2022-08-01T12:28:20;8.07;;;2.60;;
23956;SDS011;12165;45.458;11.062;2022-08-01T12:30:47;6.03;;;2.30;;
23956;SDS011;12165;45.458;11.062;2022-08-01T12:33:16;5.82;;;2.50;;
23956;SDS011;12165;45.458;11.062;2022-08-01T12:35:45;7.63;;;2.60;;
23956;SDS011;12165;45.458;11.062;2022-08-01T12:38:15;5.85;;;2.58;;
23956;SDS011;12165;45.458;11.062;2022-08-01T12:40:46;3.50;;;2.20;;
23956;SDS011;12165;45.458;11.062;2022-08-01T12:45:54;6.68;;;2.47;;
23956;SDS011;12165;45.458;11.062;2022-08-01T12:48:25;5.00;;;2.60;;
23956;SDS011;12165;45.458;11.062;2022-08-01T12:50:53;5.00;;;2.17;;
23956;SDS011;12165;45.458;11.062;2022-08-01T12:53:24;3.78;;;2.05;;
23956;SDS011;12165;45.458;11.062;2022-08-01T12:56:05;10.93;;;3.00;;
23956;SDS011;12165;45.458;11.062;2022-08-01T12:58:32;2.78;;;1.70;;
23956;SDS011;12165;45.458;11.062;2022-08-01T13:01:07;5.10;;;2.00;;
23956;SDS011;12165;45.458;11.062;2022-08-01T13:03:35;5.20;;;1.95;;
23956;SDS011;12165;45.458;11.062;2022-08-01T13:06:09;8.85;;;2.45;;
23956;SDS011;12165;45.458;11.062;2022-08-01T13:08:43;4.40;;;2.10;;
23956;SDS011;12165;45.458;11.062;2022-08-01T13:11:12;4.70;;;2.05;;
23956;SDS011;12165;45.458;11.062;2022-08-01T13:13:46;3.80;;;1.80;;
23956;SDS011;12165;45.458;11.062;2022-08-01T13:16:19;4.88;;;2.53;;
23956;SDS011;12165;45.458;11.062;2022-08-01T13:19:03;3.05;;;1.70;;
23956;SDS011;12165;45.458;11.062;2022-08-01T13:21:32;5.22;;;1.95;;
23956;SDS011;12165;45.458;11.062;2022-08-01T13:24:26;5.90;;;1.95;;
23956;SDS011;12165;45.458;11.062;2022-08-01T13:27:01;8.40;;;2.10;;
23956;SDS011;12165;45.458;11.062;2022-08-01T13:32:17;3.20;;;1.70;;
23956;SDS011;12165;45.458;11.062;2022-08-01T13:35:04;6.45;;;1.90;;
23956;SDS011;12165;45.458;11.062;2022-08-01T13:37:33;2.40;;;1.67;;
23956;SDS011;12165;45.458;11.062;2022-08-01T13:40:02;3.00;;;1.50;;
23956;SDS011;12165;45.458;11.062;2022-08-01T13:42:30;4.80;;;1.92;;
23956;SDS011;12165;45.458;11.062;2022-08-01T13:44:58;6.07;;;1.70;;
23956;SDS011;12165;45.458;11.062;2022-08-01T13:47:25;2.85;;;1.58;;
23956;SDS011;12165;45.458;11.062;2022-08-01T13:49:58;2.55;;;1.50;;
23956;SDS011;12165;45.458;11.062;2022-08-01T13:52:28;3.15;;;1.80;;
23956;SDS011;12165;45.458;11.062;2022-08-01T13:54:56;4.57;;;2.03;;
23956;SDS011;12165;45.458;11.062;2022-08-01T13:57:24;4.05;;;1.60;;
23956;SDS011;12165;45.458;11.062;2022-08-01T14:00:03;3.20;;;1.75;;
23956;SDS011;12165;45.458;11.062;2022-08-01T14:02:37;5.40;;;2.03;;
23956;SDS011;12165;45.458;11.062;2022-08-01T14:05:04;2.13;;;1.70;;
23956;SDS011;12165;45.458;11.062;2022-08-01T14:07:31;2.95;;;1.85;;
23956;SDS011;12165;45.458;11.062;2022-08-01T14:09:59;5.07;;;1.77;;
23956;SDS011;12165;45.458;11.062;2022-08-01T14:12:44;3.65;;;2.00;;
23956;SDS011;12165;45.458;11.062;2022-08-01T14:15:13;2.78;;;1.58;;
23956;SDS011;12165;45.458;11.062;2022-08-01T14:18:00;1.98;;;1.50;;
23956;SDS011;12165;45.458;11.062;2022-08-01T14:20:27;3.83;;;1.55;;
23956;SDS011;12165;45.458;11.062;2022-08-01T14:22:54;6.40;;;2.10;;
23956;SDS011;12165;45.458;11.062;2022-08-01T14:25:24;5.95;;;1.70;;
23956;SDS011;12165;45.458;11.062;2022-08-01T14:28:10;6.35;;;2.10;;
23956;SDS011;12165;45.458;11.062;2022-08-01T14:30:37;5.05;;;1.90;;
23956;SDS011;12165;45.458;11.062;2022-08-01T14:33:04;4.25;;;1.92;;
23956;SDS011;12165;45.458;11.062;2022-08-01T14:35:32;4.30;;;1.70;;
23956;SDS011;12165;45.458;11.062;2022-08-01T14:38:19;5.60;;;1.45;;
23956;SDS011;12165;45.458;11.062;2022-08-01T14:40:58;9.20;;;1.92;;
23956;SDS011;12165;45.458;11.062;2022-08-01T14:43:25;7.28;;;1.80;;
23956;SDS011;12165;45.458;11.062;2022-08-01T14:45:58;7.68;;;1.77;;
23956;SDS011;12165;45.458;11.062;2022-08-01T14:48:26;5.70;;;1.92;;
23956;SDS011;12165;45.458;11.062;2022-08-01T14:50:55;4.65;;;1.80;;
23956;SDS011;12165;45.458;11.062;2022-08-01T14:53:23;4.72;;;1.60;;
23956;SDS011;12165;45.458;11.062;2022-08-01T14:55:50;6.03;;;1.95;;
23956;SDS011;12165;45.458;11.062;2022-08-01T14:58:17;6.35;;;1.77;;
23956;SDS011;12165;45.458;11.062;2022-08-01T15:00:44;5.18;;;1.83;;
23956;SDS011;12165;45.458;11.062;2022-08-01T15:03:11;3.95;;;1.50;;
23956;SDS011;12165;45.458;11.062;2022-08-01T15:05:38;5.68;;;1.70;;
23956;SDS011;12165;45.458;11.062;2022-08-01T15:08:05;4.45;;;1.70;;
23956;SDS011;12165;45.458;11.062;2022-08-01T15:10:33;3.67;;;1.40;;
23956;SDS011;12165;45.458;11.062;2022-08-01T15:12:59;7.65;;;1.65;;
23956;SDS011;12165;45.458;11.062;2022-08-01T15:15:27;4.97;;;1.70;;
23956;SDS011;12165;45.458;11.062;2022-08-01T15:17:54;2.90;;;1.45;;
23956;SDS011;12165;45.458;11.062;2022-08-01T15:20:22;5.03;;;1.40;;
23956;SDS011;12165;45.458;11.062;2022-08-01T15:22:49;6.35;;;1.63;;
23956;SDS011;12165;45.458;11.062;2022-08-01T15:25:16;2.53;;;1.48;;
23956;SDS011;12165;45.458;11.062;2022-08-01T15:27:43;3.53;;;1.48;;
23956;SDS011;12165;45.458;11.062;2022-08-01T15:30:10;2.80;;;1.58;;
23956;SDS011;12165;45.458;11.062;2022-08-01T15:32:38;3.15;;;1.60;;
23956;SDS011;12165;45.458;11.062;2022-08-01T15:35:05;3.72;;;1.45;;
23956;SDS011;12165;45.458;11.062;2022-08-01T15:37:33;2.55;;;1.63;;
23956;SDS011;12165;45.458;11.062;2022-08-01T15:40:06;3.30;;;1.40;;
23956;SDS011;12165;45.458;11.062;2022-08-01T15:42:33;3.85;;;1.65;;
23956;SDS011;12165;45.458;11.062;2022-08-01T15:45:01;3.45;;;1.60;;
23956;SDS011;12165;45.458;11.062;2022-08-01T15:47:29;2.08;;;1.52;;
23956;SDS011;12165;45.458;11.062;2022-08-01T15:49:56;2.67;;;1.60;;
23956;SDS011;12165;45.458;11.062;2022-08-01T15:52:25;4.32;;;1.83;;
23956;SDS011;12165;45.458;11.062;2022-08-01T15:54:57;8.07;;;2.15;;
23956;SDS011;12165;45.458;11.062;2022-08-01T15:57:24;3.25;;;1.75;;
23956;SDS011;12165;45.458;11.062;2022-08-01T15:59:51;4.53;;;1.60;;
23956;SDS011;12165;45.458;11.062;2022-08-01T16:02:18;5.55;;;1.88;;
23956;SDS011;12165;45.458;11.062;2022-08-01T16:04:45;4.75;;;1.80;;
23956;SDS011;12165;45.458;11.062;2022-08-01T16:07:12;4.78;;;1.83;;
23956;SDS011;12165;45.458;11.062;2022-08-01T16:09:39;3.50;;;1.80;;
23956;SDS011;12165;45.458;11.062;2022-08-01T16:12:06;7.72;;;2.00;;